sensor_id;sensor_type;location;lat;lon;timestamp;pressure;altitude;pressure_sealevel;temperature;humidity
7407;BME280;3745;56.964;24.128;2023-09-08T00:00:32;102311.22;;;11.95;100.00
7407;BME280;3745;56.964;24.128;2023-09-08T00:05:53;102235.50;;;11.55;100.00
7407;BME280;3745;56.964;24.128;2023-09-08T00:08:31;102325.84;;;12.02;100.00
7407;BME280;3745;56.964;24.128;2023-09-08T00:11:14;102218.91;;;11.39;100.00
7407;BME280;3745;56.964;24.128;2023-09-08T00:13:59;102238.06;;;11.57;100.00
7407;BME280;3745;56.964;24.128;2023-09-08T00:16:38;102284.47;;;11.78;100.00
7407;BME280;3745;56.964;24.128;2023-09-08T00:19:13;102342.13;;;12.09;100.00
7407;BME280;3745;56.964;24.128;2023-09-08T00:21:54;102486.34;;;12.99;100.00
7407;BME280;3745;56.964;24.128;2023-09-08T00:24:36;102414.69;;;12.56;100.00
7407;BME280;3745;56.964;24.128;2023-09-08T00:27:07;102251.38;;;11.50;100.00
7407;BME280;3745;56.964;24.128;2023-09-08T00:29:44;102406.88;;;12.49;100.00
7407;BME280;3745;56.964;24.128;2023-09-08T00:35:20;102244.63;;;11.50;100.00
7407;BME280;3745;56.964;24.128;2023-09-08T00:41:31;102353.41;;;12.18;100.00
7407;BME280;3745;56.964;24.128;2023-09-08T00:44:01;102349.78;;;12.10;100.00
7407;BME280;3745;56.964;24.128;2023-09-08T00:46:30;102306.75;;;11.88;100.00
7407;BME280;3745;56.964;24.128;2023-09-08T00:49:10;102329.47;;;12.10;100.00
7407;BME280;3745;56.964;24.128;2023-09-08T00:51:55;102265.69;;;11.73;100.00
7407;BME280;3745;56.964;24.128;2023-09-08T00:54:32;102232.00;;;11.52;100.00
7407;BME280;3745;56.964;24.128;2023-09-08T01:00:55;102215.78;;;11.47;100.00
7407;BME280;3745;56.964;24.128;2023-09-08T01:03:32;102214.81;;;11.43;100.00
7407;BME280;3745;56.964;24.128;2023-09-08T01:06:00;102212.31;;;11.44;100.00
7407;BME280;3745;56.964;24.128;2023-09-08T01:08:39;102314.06;;;12.04;100.00
7407;BME280;3745;56.964;24.128;2023-09-08T01:11:41;102410.72;;;12.64;100.00
7407;BME280;3745;56.964;24.128;2023-09-08T01:14:12;102334.03;;;12.20;100.00
7407;BME280;3745;56.964;24.128;2023-09-08T01:16:41;102184.88;;;11.31;100.00
7407;BME280;3745;56.964;24.128;2023-09-08T01:19:11;102350.63;;;12.37;100.00
7407;BME280;3745;56.964;24.128;2023-09-08T01:25:28;102370.34;;;12.73;100.00
7407;BME280;3745;56.964;24.128;2023-09-08T01:27:58;102255.69;;;12.04;100.00
7407;BME280;3745;56.964;24.128;2023-09-08T01:30:51;102442.28;;;13.25;100.00
7407;BME280;3745;56.964;24.128;2023-09-08T01:33:32;102309.16;;;12.37;100.00
7407;BME280;3745;56.964;24.128;2023-09-08T01:36:01;102218.41;;;12.02;100.00
7407;BME280;3745;56.964;24.128;2023-09-08T01:38:46;102443.25;;;13.30;100.00
7407;BME280;3745;56.964;24.128;2023-09-08T01:41:43;102193.97;;;11.78;100.00
7407;BME280;3745;56.964;24.128;2023-09-08T01:44:22;102199.31;;;11.86;100.00
7407;BME280;3745;56.964;24.128;2023-09-08T01:46:59;102343.13;;;12.69;100.00
7407;BME280;3745;56.964;24.128;2023-09-08T01:53:08;102164.00;;;11.67;100.00
7407;BME280;3745;56.964;24.128;2023-09-08T01:56:05;102334.44;;;12.61;100.00
7407;BME280;3745;56.964;24.128;2023-09-08T01:58:57;102286.34;;;12.38;100.00
7407;BME280;3745;56.964;24.128;2023-09-08T02:01:39;102261.59;;;12.31;100.00
7407;BME280;3745;56.964;24.128;2023-09-08T02:04:39;102418.94;;;13.10;100.00
7407;BME280;3745;56.964;24.128;2023-09-08T02:07:30;102162.72;;;11.53;100.00
7407;BME280;3745;56.964;24.128;2023-09-08T02:10:07;102422.88;;;13.02;100.00
7407;BME280;3745;56.964;24.128;2023-09-08T02:12:56;102232.28;;;11.86;100.00
7407;BME280;3745;56.964;24.128;2023-09-08T02:18:37;102247.59;;;11.89;100.00
7407;BME280;3745;56.964;24.128;2023-09-08T02:21:08;102111.69;;;11.15;100.00
7407;BME280;3745;56.964;24.128;2023-09-08T02:23:37;102194.16;;;11.58;100.00
7407;BME280;3745;56.964;24.128;2023-09-08T02:26:09;102141.78;;;11.31;100.00
7407;BME280;3745;56.964;24.128;2023-09-08T02:28:45;102180.47;;;11.53;100.00
7407;BME280;3745;56.964;24.128;2023-09-08T02:31:23;102371.88;;;12.68;100.00
7407;BME280;3745;56.964;24.128;2023-09-08T02:34:20;102296.16;;;12.26;100.00
7407;BME280;3745;56.964;24.128;2023-09-08T02:37:19;102317.63;;;12.37;100.00
7407;BME280;3745;56.964;24.128;2023-09-08T02:39:52;102386.47;;;12.73;100.00
7407;BME280;3745;56.964;24.128;2023-09-08T02:45:19;102192.22;;;11.51;100.00
7407;BME280;3745;56.964;24.128;2023-09-08T02:47:55;102302.72;;;12.21;100.00
7407;BME280;3745;56.964;24.128;2023-09-08T02:50:34;102392.28;;;12.71;100.00
7407;BME280;3745;56.964;24.128;2023-09-08T02:53:19;102147.75;;;11.33;100.00
7407;BME280;3745;56.964;24.128;2023-09-08T02:56:00;102294.03;;;12.13;100.00
7407;BME280;3745;56.964;24.128;2023-09-08T02:58:33;102278.63;;;12.07;100.00
7407;BME280;3745;56.964;24.128;2023-09-08T03:01:35;102203.72;;;11.66;100.00
7407;BME280;3745;56.964;24.128;2023-09-08T03:04:24;102127.28;;;11.27;100.00
7407;BME280;3745;56.964;24.128;2023-09-08T03:07:21;102346.88;;;12.53;100.00
7407;BME280;3745;56.964;24.128;2023-09-08T03:09:55;102193.63;;;11.68;100.00
7407;BME280;3745;56.964;24.128;2023-09-08T03:12:21;102075.53;;;10.94;100.00
7407;BME280;3745;56.964;24.128;2023-09-08T03:14:51;102235.81;;;11.91;100.00
7407;BME280;3745;56.964;24.128;2023-09-08T03:17:20;102353.09;;;12.63;100.00
7407;BME280;3745;56.964;24.128;2023-09-08T03:20:05;102263.47;;;12.10;100.00
7407;BME280;3745;56.964;24.128;2023-09-08T03:26:04;102346.03;;;12.81;100.00
7407;BME280;3745;56.964;24.128;2023-09-08T03:28:34;102087.69;;;11.31;100.00
7407;BME280;3745;56.964;24.128;2023-09-08T03:31:04;102251.41;;;12.30;100.00
7407;BME280;3745;56.964;24.128;2023-09-08T03:33:31;102154.09;;;11.73;100.00
7407;BME280;3745;56.964;24.128;2023-09-08T03:36:11;102155.81;;;11.74;100.00
7407;BME280;3745;56.964;24.128;2023-09-08T03:38:45;102137.66;;;11.62;100.00
7407;BME280;3745;56.964;24.128;2023-09-08T03:41:16;102349.56;;;12.86;100.00
7407;BME280;3745;56.964;24.128;2023-09-08T03:43:50;102176.47;;;11.86;100.00
7407;BME280;3745;56.964;24.128;2023-09-08T03:49:04;102307.75;;;12.75;100.00
7407;BME280;3745;56.964;24.128;2023-09-08T03:51:39;102091.78;;;11.54;100.00
7407;BME280;3745;56.964;24.128;2023-09-08T03:54:05;102328.50;;;12.90;100.00
7407;BME280;3745;56.964;24.128;2023-09-08T03:56:31;102130.16;;;11.65;100.00
7407;BME280;3745;56.964;24.128;2023-09-08T03:59:16;102327.53;;;12.85;100.00
7407;BME280;3745;56.964;24.128;2023-09-08T04:01:47;102215.00;;;12.29;100.00
7407;BME280;3745;56.964;24.128;2023-09-08T04:04:33;102061.84;;;11.42;100.00
7407;BME280;3745;56.964;24.128;2023-09-08T04:07:12;102121.72;;;11.66;100.00
7407;BME280;3745;56.964;24.128;2023-09-08T04:09:47;102157.06;;;11.88;100.00
7407;BME280;3745;56.964;24.128;2023-09-08T04:12:26;102151.09;;;11.86;100.00
7407;BME280;3745;56.964;24.128;2023-09-08T04:15:00;102226.13;;;12.34;100.00
7407;BME280;3745;56.964;24.128;2023-09-08T04:17:43;102127.84;;;11.72;100.00
7407;BME280;3745;56.964;24.128;2023-09-08T04:20:12;102228.84;;;12.40;100.00
7407;BME280;3745;56.964;24.128;2023-09-08T04:22:43;102027.47;;;11.22;100.00
7407;BME280;3745;56.964;24.128;2023-09-08T04:28:30;102292.47;;;13.04;100.00
7407;BME280;3745;56.964;24.128;2023-09-08T04:31:04;102121.09;;;12.01;100.00
7407;BME280;3745;56.964;24.128;2023-09-08T04:34:12;102040.59;;;11.66;100.00
7407;BME280;3745;56.964;24.128;2023-09-08T04:36:46;102064.69;;;11.80;100.00
7407;BME280;3745;56.964;24.128;2023-09-08T04:39:16;102246.53;;;12.97;100.00
7407;BME280;3745;56.964;24.128;2023-09-08T04:41:45;102097.47;;;12.02;100.00
7407;BME280;3745;56.964;24.128;2023-09-08T04:44:13;102291.31;;;13.22;100.00
7407;BME280;3745;56.964;24.128;2023-09-08T04:47:08;102030.75;;;11.75;100.00
7407;BME280;3745;56.964;24.128;2023-09-08T04:49:42;102042.91;;;11.88;100.00
7407;BME280;3745;56.964;24.128;2023-09-08T04:52:14;102215.22;;;12.98;100.00
7407;BME280;3745;56.964;24.128;2023-09-08T04:55:15;102040.94;;;12.08;100.00
7407;BME280;3745;56.964;24.128;2023-09-08T04:57:49;102134.91;;;12.72;100.00
7407;BME280;3745;56.964;24.128;2023-09-08T05:00:18;102180.16;;;13.18;100.00
7407;BME280;3745;56.964;24.128;2023-09-08T05:02:56;102089.75;;;12.62;100.00
7407;BME280;3745;56.964;24.128;2023-09-08T05:08:47;102051.59;;;12.59;100.00
7407;BME280;3745;56.964;24.128;2023-09-08T05:11:20;102294.34;;;14.10;100.00
7407;BME280;3745;56.964;24.128;2023-09-08T05:14:15;102120.13;;;12.90;100.00
7407;BME280;3745;56.964;24.128;2023-09-08T05:16:54;102007.09;;;12.07;100.00
7407;BME280;3745;56.964;24.128;2023-09-08T05:22:39;102281.88;;;13.85;100.00
7407;BME280;3745;56.964;24.128;2023-09-08T05:25:21;102202.88;;;13.44;100.00
7407;BME280;3745;56.964;24.128;2023-09-08T05:28:03;101965.59;;;12.05;100.00
7407;BME280;3745;56.964;24.128;2023-09-08T05:30:41;102164.19;;;13.22;100.00
7407;BME280;3745;56.964;24.128;2023-09-08T05:33:17;102058.56;;;12.66;100.00
7407;BME280;3745;56.964;24.128;2023-09-08T05:36:23;102032.84;;;12.54;100.00
7407;BME280;3745;56.964;24.128;2023-09-08T05:38:51;102112.06;;;13.06;100.00
7407;BME280;3745;56.964;24.128;2023-09-08T05:47:14;101965.94;;;12.52;100.00
7407;BME280;3745;56.964;24.128;2023-09-08T05:50:11;102066.84;;;13.27;100.00
7407;BME280;3745;56.964;24.128;2023-09-08T05:52:47;102195.09;;;14.11;100.00
7407;BME280;3745;56.964;24.128;2023-09-08T05:55:13;102259.78;;;14.58;100.00
7407;BME280;3745;56.964;24.128;2023-09-08T05:57:51;102071.75;;;13.57;100.00
7407;BME280;3745;56.964;24.128;2023-09-08T06:00:44;102250.81;;;14.77;100.00
7407;BME280;3745;56.964;24.128;2023-09-08T06:03:39;102243.16;;;14.76;100.00
7407;BME280;3745;56.964;24.128;2023-09-08T06:06:07;102238.22;;;14.85;100.00
7407;BME280;3745;56.964;24.128;2023-09-08T06:11:37;102231.72;;;15.02;100.00
7407;BME280;3745;56.964;24.128;2023-09-08T06:14:03;102085.75;;;14.19;100.00
7407;BME280;3745;56.964;24.128;2023-09-08T06:16:29;102003.47;;;13.77;100.00
7407;BME280;3745;56.964;24.128;2023-09-08T06:19:06;102082.97;;;14.50;100.00
7407;BME280;3745;56.964;24.128;2023-09-08T06:22:01;102227.16;;;15.32;100.00
7407;BME280;3745;56.964;24.128;2023-09-08T06:24:29;102232.41;;;15.41;100.00
7407;BME280;3745;56.964;24.128;2023-09-08T06:26:55;102131.22;;;14.88;100.00
7407;BME280;3745;56.964;24.128;2023-09-08T06:29:24;102120.16;;;14.87;100.00
7407;BME280;3745;56.964;24.128;2023-09-08T06:31:53;102026.72;;;14.38;100.00
7407;BME280;3745;56.964;24.128;2023-09-08T06:34:19;102136.63;;;15.06;100.00
7407;BME280;3745;56.964;24.128;2023-09-08T06:36:48;102128.44;;;15.25;100.00
7407;BME280;3745;56.964;24.128;2023-09-08T06:39:14;102132.09;;;15.42;100.00
7407;BME280;3745;56.964;24.128;2023-09-08T06:41:40;102026.00;;;14.98;100.00
7407;BME280;3745;56.964;24.128;2023-09-08T06:44:06;102045.88;;;15.18;100.00
7407;BME280;3745;56.964;24.128;2023-09-08T06:46:34;102063.91;;;15.32;100.00
7407;BME280;3745;56.964;24.128;2023-09-08T06:49:23;102144.78;;;15.95;100.00
7407;BME280;3745;56.964;24.128;2023-09-08T06:51:49;101981.91;;;15.05;100.00
7407;BME280;3745;56.964;24.128;2023-09-08T06:54:20;102134.63;;;16.01;100.00
7407;BME280;3745;56.964;24.128;2023-09-08T06:56:46;102209.50;;;16.63;100.00
7407;BME280;3745;56.964;24.128;2023-09-08T06:59:11;102019.16;;;15.54;100.00
7407;BME280;3745;56.964;24.128;2023-09-08T07:01:37;101963.59;;;15.33;100.00
7407;BME280;3745;56.964;24.128;2023-09-08T07:04:03;101960.28;;;15.40;100.00
7407;BME280;3745;56.964;24.128;2023-09-08T07:06:34;101994.75;;;15.76;100.00
7407;BME280;3745;56.964;24.128;2023-09-08T07:09:04;102116.50;;;16.53;100.00
7407;BME280;3745;56.964;24.128;2023-09-08T07:11:32;102162.03;;;16.89;100.00
7407;BME280;3745;56.964;24.128;2023-09-08T07:13:58;102195.50;;;17.09;100.00
7407;BME280;3745;56.964;24.128;2023-09-08T07:16:24;102173.25;;;17.02;100.00
7407;BME280;3745;56.964;24.128;2023-09-08T07:18:50;102192.16;;;17.16;100.00
7407;BME280;3745;56.964;24.128;2023-09-08T07:21:15;102052.47;;;16.38;100.00
7407;BME280;3745;56.964;24.128;2023-09-08T07:23:41;101983.16;;;16.05;100.00
7407;BME280;3745;56.964;24.128;2023-09-08T07:26:07;102188.91;;;17.38;100.00
7407;BME280;3745;56.964;24.128;2023-09-08T07:28:33;102185.53;;;17.42;100.00
7407;BME280;3745;56.964;24.128;2023-09-08T07:31:04;101997.19;;;16.49;100.00
7407;BME280;3745;56.964;24.128;2023-09-08T07:33:30;102146.31;;;17.46;100.00
7407;BME280;3745;56.964;24.128;2023-09-08T07:36:05;101947.69;;;16.38;100.00
7407;BME280;3745;56.964;24.128;2023-09-08T07:38:32;102176.44;;;17.85;100.00
7407;BME280;3745;56.964;24.128;2023-09-08T07:41:01;102077.97;;;17.33;100.00
7407;BME280;3745;56.964;24.128;2023-09-08T07:43:27;101941.06;;;16.61;100.00
7407;BME280;3745;56.964;24.128;2023-09-08T07:45:53;102071.25;;;17.47;100.00
7407;BME280;3745;56.964;24.128;2023-09-08T07:48:30;102102.91;;;17.63;100.00
7407;BME280;3745;56.964;24.128;2023-09-08T07:50:55;102174.03;;;18.14;100.00
7407;BME280;3745;56.964;24.128;2023-09-08T07:53:21;102180.91;;;18.21;100.00
7407;BME280;3745;56.964;24.128;2023-09-08T07:55:47;102094.50;;;17.86;100.00
7407;BME280;3745;56.964;24.128;2023-09-08T07:58:13;102056.06;;;17.83;100.00
7407;BME280;3745;56.964;24.128;2023-09-08T08:00:38;101979.00;;;17.32;100.00
7407;BME280;3745;56.964;24.128;2023-09-08T08:03:05;102131.41;;;18.40;100.00
7407;BME280;3745;56.964;24.128;2023-09-08T08:05:37;102052.69;;;18.00;100.00
7407;BME280;3745;56.964;24.128;2023-09-08T08:08:02;102037.28;;;17.87;100.00
7407;BME280;3745;56.964;24.128;2023-09-08T08:10:34;102191.34;;;18.66;100.00
7407;BME280;3745;56.964;24.128;2023-09-08T08:13:03;102093.75;;;18.15;100.00
7407;BME280;3745;56.964;24.128;2023-09-08T08:15:40;102117.72;;;18.35;100.00
7407;BME280;3745;56.964;24.128;2023-09-08T08:18:08;102090.34;;;18.19;100.00
7407;BME280;3745;56.964;24.128;2023-09-08T08:20:35;101996.25;;;17.66;100.00
7407;BME280;3745;56.964;24.128;2023-09-08T08:23:05;102047.63;;;18.15;100.00
7407;BME280;3745;56.964;24.128;2023-09-08T08:25:32;101921.06;;;17.46;100.00
7407;BME280;3745;56.964;24.128;2023-09-08T08:28:03;102160.59;;;18.97;100.00
7407;BME280;3745;56.964;24.128;2023-09-08T08:30:29;102018.56;;;18.19;100.00
7407;BME280;3745;56.964;24.128;2023-09-08T08:32:58;101957.91;;;17.92;100.00
7407;BME280;3745;56.964;24.128;2023-09-08T08:35:24;102167.47;;;19.25;100.00
7407;BME280;3745;56.964;24.128;2023-09-08T08:37:49;102061.41;;;18.73;100.00
7407;BME280;3745;56.964;24.128;2023-09-08T08:40:15;102156.31;;;19.33;100.00
7407;BME280;3745;56.964;24.128;2023-09-08T08:42:41;101985.28;;;18.35;100.00
7407;BME280;3745;56.964;24.128;2023-09-08T08:45:11;102086.19;;;18.93;100.00
7407;BME280;3745;56.964;24.128;2023-09-08T08:47:37;102013.50;;;18.61;100.00
7407;BME280;3745;56.964;24.128;2023-09-08T08:50:03;102152.91;;;19.53;100.00
7407;BME280;3745;56.964;24.128;2023-09-08T08:52:30;101975.91;;;18.51;100.00
7407;BME280;3745;56.964;24.128;2023-09-08T08:54:59;102052.81;;;19.03;100.00
7407;BME280;3745;56.964;24.128;2023-09-08T08:57:25;102010.06;;;18.86;100.00
7407;BME280;3745;56.964;24.128;2023-09-08T08:59:52;102146.00;;;19.70;100.00
7407;BME280;3745;56.964;24.128;2023-09-08T09:02:18;102004.94;;;18.92;100.00
7407;BME280;3745;56.964;24.128;2023-09-08T09:04:45;102064.75;;;19.37;100.00
7407;BME280;3745;56.964;24.128;2023-09-08T09:07:11;102122.91;;;19.74;100.00
7407;BME280;3745;56.964;24.128;2023-09-08T09:09:37;102138.25;;;19.89;100.00
7407;BME280;3745;56.964;24.128;2023-09-08T09:12:05;102093.78;;;19.63;100.00
7407;BME280;3745;56.964;24.128;2023-09-08T09:14:34;102140.81;;;19.92;100.00
7407;BME280;3745;56.964;24.128;2023-09-08T09:17:04;102064.72;;;19.52;100.00
7407;BME280;3745;56.964;24.128;2023-09-08T09:19:38;101969.84;;;19.02;100.00
7407;BME280;3745;56.964;24.128;2023-09-08T09:22:07;101986.03;;;19.30;100.00
7407;BME280;3745;56.964;24.128;2023-09-08T09:24:41;101981.72;;;19.45;100.00
7407;BME280;3745;56.964;24.128;2023-09-08T09:27:09;102040.69;;;19.74;100.00
7407;BME280;3745;56.964;24.128;2023-09-08T09:29:49;101948.38;;;19.23;100.00
7407;BME280;3745;56.964;24.128;2023-09-08T09:32:22;101885.16;;;19.07;100.00
7407;BME280;3745;56.964;24.128;2023-09-08T09:34:57;102027.69;;;20.01;100.00
7407;BME280;3745;56.964;24.128;2023-09-08T09:37:26;101958.50;;;19.65;100.00
7407;BME280;3745;56.964;24.128;2023-09-08T09:39:53;101965.28;;;19.75;100.00
7407;BME280;3745;56.964;24.128;2023-09-08T09:42:22;102025.03;;;20.17;100.00
7407;BME280;3745;56.964;24.128;2023-09-08T09:44:49;102107.00;;;20.68;100.00
7407;BME280;3745;56.964;24.128;2023-09-08T09:47:16;102065.91;;;20.56;100.00
7407;BME280;3745;56.964;24.128;2023-09-08T09:49:44;102100.06;;;20.79;100.00
7407;BME280;3745;56.964;24.128;2023-09-08T09:52:12;102100.09;;;20.76;100.00
7407;BME280;3745;56.964;24.128;2023-09-08T09:54:42;102095.72;;;20.83;100.00
7407;BME280;3745;56.964;24.128;2023-09-08T09:57:14;102007.75;;;20.37;100.00
7407;BME280;3745;56.964;24.128;2023-09-08T09:59:51;102087.06;;;20.93;100.00
7407;BME280;3745;56.964;24.128;2023-09-08T10:02:21;102092.19;;;20.96;100.00
7407;BME280;3745;56.964;24.128;2023-09-08T10:04:50;102082.69;;;21.02;100.00
7407;BME280;3745;56.964;24.128;2023-09-08T10:07:17;102071.50;;;21.05;100.00
7407;BME280;3745;56.964;24.128;2023-09-08T10:09:47;102070.56;;;21.17;100.00
7407;BME280;3745;56.964;24.128;2023-09-08T10:12:14;101988.50;;;20.80;100.00
7407;BME280;3745;56.964;24.128;2023-09-08T10:14:48;102076.38;;;21.37;100.00
7407;BME280;3745;56.964;24.128;2023-09-08T10:17:21;101853.72;;;20.03;100.00
7407;BME280;3745;56.964;24.128;2023-09-08T10:19:57;102007.25;;;20.94;100.00
7407;BME280;3745;56.964;24.128;2023-09-08T10:22:30;101865.66;;;20.11;100.00
7407;BME280;3745;56.964;24.128;2023-09-08T10:25:03;101843.44;;;20.03;100.00
7407;BME280;3745;56.964;24.128;2023-09-08T10:27:37;101984.97;;;20.90;100.00
7407;BME280;3745;56.964;24.128;2023-09-08T10:30:14;101817.78;;;20.00;100.00
7407;BME280;3745;56.964;24.128;2023-09-08T10:33:07;101892.69;;;20.55;100.00
7407;BME280;3745;56.964;24.128;2023-09-08T10:44:59;101974.81;;;21.56;100.00
7407;BME280;3745;56.964;24.128;2023-09-08T10:50:48;101934.41;;;21.58;100.00
7407;BME280;3745;56.964;24.128;2023-09-08T10:53:17;101867.84;;;21.28;100.00
7407;BME280;3745;56.964;24.128;2023-09-08T10:55:47;101961.25;;;22.04;100.00
7407;BME280;3745;56.964;24.128;2023-09-08T10:58:36;101822.53;;;21.16;100.00
7407;BME280;3745;56.964;24.128;2023-09-08T11:01:28;102042.84;;;22.65;100.00
7407;BME280;3745;56.964;24.128;2023-09-08T11:06:56;101920.94;;;21.99;100.00
7407;BME280;3745;56.964;24.128;2023-09-08T11:09:23;101917.63;;;21.91;100.00
7407;BME280;3745;56.964;24.128;2023-09-08T11:12:29;102031.94;;;22.48;100.00
7407;BME280;3745;56.964;24.128;2023-09-08T11:15:33;101831.88;;;21.20;100.00
7407;BME280;3745;56.964;24.128;2023-09-08T11:18:04;101885.28;;;21.69;100.00
7407;BME280;3745;56.964;24.128;2023-09-08T11:20:30;101976.53;;;22.17;100.00
7407;BME280;3745;56.964;24.128;2023-09-08T11:23:01;101983.19;;;22.30;100.00
7407;BME280;3745;56.964;24.128;2023-09-08T11:25:30;101956.56;;;22.28;100.00
7407;BME280;3745;56.964;24.128;2023-09-08T11:30:53;101993.06;;;22.57;100.00
7407;BME280;3745;56.964;24.128;2023-09-08T11:33:21;101952.34;;;22.24;100.00
7407;BME280;3745;56.964;24.128;2023-09-08T11:35:54;101844.34;;;21.49;100.00
7407;BME280;3745;56.964;24.128;2023-09-08T11:38:27;102021.59;;;22.48;100.00
7407;BME280;3745;56.964;24.128;2023-09-08T11:41:00;101865.66;;;21.60;100.00
7407;BME280;3745;56.964;24.128;2023-09-08T11:43:47;101955.94;;;22.13;100.00
7407;BME280;3745;56.964;24.128;2023-09-08T11:46:13;101834.97;;;21.45;100.00
7407;BME280;3745;56.964;24.128;2023-09-08T11:48:40;101831.47;;;21.49;100.00
7407;BME280;3745;56.964;24.128;2023-09-08T11:51:12;101880.81;;;21.78;100.00
7407;BME280;3745;56.964;24.128;2023-09-08T11:53:38;101943.75;;;22.22;100.00
7407;BME280;3745;56.964;24.128;2023-09-08T11:56:14;101785.47;;;21.25;100.00
7407;BME280;3745;56.964;24.128;2023-09-08T11:58:43;101815.31;;;21.39;100.00
7407;BME280;3745;56.964;24.128;2023-09-08T12:01:12;101934.63;;;22.02;100.00
7407;BME280;3745;56.964;24.128;2023-09-08T12:03:55;101899.75;;;21.77;100.00
7407;BME280;3745;56.964;24.128;2023-09-08T12:06:27;101936.94;;;22.21;100.00
7407;BME280;3745;56.964;24.128;2023-09-08T12:09:23;101820.25;;;21.53;100.00
7407;BME280;3745;56.964;24.128;2023-09-08T12:11:49;101959.75;;;22.43;100.00
7407;BME280;3745;56.964;24.128;2023-09-08T12:14:18;101909.38;;;22.23;100.00
7407;BME280;3745;56.964;24.128;2023-09-08T12:16:44;101892.22;;;22.20;100.00
7407;BME280;3745;56.964;24.128;2023-09-08T12:19:33;101813.56;;;21.93;100.00
7407;BME280;3745;56.964;24.128;2023-09-08T12:22:03;101806.94;;;21.80;100.00
7407;BME280;3745;56.964;24.128;2023-09-08T12:24:55;101800.47;;;21.55;100.00
7407;BME280;3745;56.964;24.128;2023-09-08T12:34:39;101876.22;;;21.42;100.00
7407;BME280;3745;56.964;24.128;2023-09-08T12:37:29;102006.63;;;22.16;100.00
7407;BME280;3745;56.964;24.128;2023-09-08T12:40:12;101803.06;;;20.92;100.00
7407;BME280;3745;56.964;24.128;2023-09-08T12:42:38;101813.94;;;21.16;100.00
7407;BME280;3745;56.964;24.128;2023-09-08T12:45:09;102008.06;;;22.34;100.00
7407;BME280;3745;56.964;24.128;2023-09-08T12:48:04;101880.91;;;21.72;100.00
7407;BME280;3745;56.964;24.128;2023-09-08T12:54:06;101996.66;;;22.47;100.00
7407;BME280;3745;56.964;24.128;2023-09-08T12:56:50;101788.63;;;21.42;100.00
7407;BME280;3745;56.964;24.128;2023-09-08T12:59:25;101908.75;;;22.08;100.00
7407;BME280;3745;56.964;24.128;2023-09-08T13:02:27;101836.63;;;21.49;100.00
7407;BME280;3745;56.964;24.128;2023-09-08T13:04:53;101990.00;;;22.34;100.00
7407;BME280;3745;56.964;24.128;2023-09-08T13:07:20;101867.22;;;21.70;100.00
7407;BME280;3745;56.964;24.128;2023-09-08T13:09:59;101975.25;;;22.42;100.00
7407;BME280;3745;56.964;24.128;2023-09-08T13:12:27;101770.13;;;21.19;100.00
7407;BME280;3745;56.964;24.128;2023-09-08T13:14:53;101851.03;;;21.62;100.00
7407;BME280;3745;56.964;24.128;2023-09-08T13:17:19;101775.09;;;21.31;100.00
7407;BME280;3745;56.964;24.128;2023-09-08T13:19:51;101772.38;;;21.38;100.00
7407;BME280;3745;56.964;24.128;2023-09-08T13:22:33;101766.41;;;21.38;100.00
7407;BME280;3745;56.964;24.128;2023-09-08T13:24:58;101772.38;;;21.40;100.00
7407;BME280;3745;56.964;24.128;2023-09-08T13:27:36;101928.19;;;22.28;100.00
7407;BME280;3745;56.964;24.128;2023-09-08T13:30:16;101963.75;;;22.61;100.00
7407;BME280;3745;56.964;24.128;2023-09-08T13:32:55;101794.28;;;21.65;100.00
7407;BME280;3745;56.964;24.128;2023-09-08T13:35:47;101779.81;;;21.56;100.00
7407;BME280;3745;56.964;24.128;2023-09-08T13:38:19;101847.84;;;22.01;100.00
7407;BME280;3745;56.964;24.128;2023-09-08T13:40:44;101878.44;;;22.21;100.00
7407;BME280;3745;56.964;24.128;2023-09-08T13:43:15;101760.19;;;21.48;100.00
7407;BME280;3745;56.964;24.128;2023-09-08T13:45:47;101875.13;;;22.14;100.00
7407;BME280;3745;56.964;24.128;2023-09-08T13:48:13;101888.13;;;22.08;100.00
7407;BME280;3745;56.964;24.128;2023-09-08T13:50:39;101831.19;;;21.67;100.00
7407;BME280;3745;56.964;24.128;2023-09-08T13:53:09;101830.44;;;21.60;100.00
7407;BME280;3745;56.964;24.128;2023-09-08T13:55:38;101942.63;;;22.39;100.00
7407;BME280;3745;56.964;24.128;2023-09-08T13:58:03;101948.63;;;22.40;100.00
7407;BME280;3745;56.964;24.128;2023-09-08T14:00:32;101820.81;;;21.70;100.00
7407;BME280;3745;56.964;24.128;2023-09-08T14:02:58;101752.63;;;21.39;100.00
7407;BME280;3745;56.964;24.128;2023-09-08T14:05:24;101812.03;;;21.83;100.00
7407;BME280;3745;56.964;24.128;2023-09-08T14:07:49;101955.97;;;22.64;100.00
7407;BME280;3745;56.964;24.128;2023-09-08T14:10:15;101778.25;;;21.48;100.00
7407;BME280;3745;56.964;24.128;2023-09-08T14:12:46;101786.19;;;21.33;100.00
7407;BME280;3745;56.964;24.128;2023-09-08T14:15:36;101951.44;;;22.25;100.00
7407;BME280;3745;56.964;24.128;2023-09-08T14:21:13;101819.41;;;20.90;100.00
7407;BME280;3745;56.964;24.128;2023-09-08T14:27:22;101963.66;;;21.54;100.00
7407;BME280;3745;56.964;24.128;2023-09-08T14:30:00;101839.81;;;20.29;100.00
7407;BME280;3745;56.964;24.128;2023-09-08T14:32:26;101918.53;;;20.45;100.00
7407;BME280;3745;56.964;24.128;2023-09-08T14:35:00;101795.78;;;19.66;100.00
7407;BME280;3745;56.964;24.128;2023-09-08T14:37:34;102007.28;;;20.91;100.00
7407;BME280;3745;56.964;24.128;2023-09-08T14:40:00;101927.00;;;20.56;100.00
7407;BME280;3745;56.964;24.128;2023-09-08T14:42:28;101788.84;;;19.80;100.00
7407;BME280;3745;56.964;24.128;2023-09-08T14:47:56;101875.97;;;20.08;100.00
7407;BME280;3745;56.964;24.128;2023-09-08T14:50:24;101799.25;;;19.65;100.00
7407;BME280;3745;56.964;24.128;2023-09-08T14:52:53;101844.38;;;19.98;100.00
7407;BME280;3745;56.964;24.128;2023-09-08T14:55:42;101795.72;;;19.75;100.00